• Join FlightAware (Why Join?)
  • Login
  • US Flag 
01:12PM EST


 

Airport Tracker/Info


-or-


 

Live Flight TrackerFlight Track Log ✈ DAL839 ✈ 24-Jul-2014 ✈ KFLL - KMSP

Flight Track Log - Related Links

Times and Time Zones

All times are in EDT time to prevent confusion due to time zone crossing. See the DAL839 flight status page for this flight to view local times or setup timezone preferences in your user account.

Time Position Orientation Groundspeed Altitude Reporting Facility
EDT Latitude Longitude Course Direction KTS MPH feet Rate Location/Type
03:47PM 26.0769 -80.1844 338° Northwest 166 191 900  Level Miami Center
03:48PM 26.0867 -80.2269 284° West 226 260 1,700 1,620 Climbing Miami Center
03:49PM 26.1050 -80.3050 285° West 276 318 3,700 1,680 Climbing Miami Center
03:49PM 26.1067 -80.3067 318° Northwest 260 299 3,700 960 Level Miami Center
03:50PM 26.1531 -80.3658 311° West 281 323 4,900 1,680 Climbing Miami Center
03:51PM 26.5011 -80.3849 334° Northwest  Level Estimated
03:51PM 26.2381 -80.3244 24° Northeast 280 322 7,200  Level Miami Center
03:52PM 26.6112 -80.4366 338° Northwest  Level FlightAware Approximate
03:52PM 26.3147 -80.2858 24° Northeast 293 337 9,600  Level Miami Center
03:53PM 26.7217 -80.4863 338° Northwest  Level FlightAware Approximate
03:53PM 26.4028 -80.3203 341° North 318 366 11,200  Level Miami Center
03:54PM 26.4939 -80.3700 334° Northwest 367 422 12,500 1,200 Climbing Miami Center
03:55PM 26.6069 -80.4183 339° North 405 466 13,800 1,320 Climbing Miami Center
03:56PM 26.7228 -80.4472 347° North 425 489 15,300 1,500 Climbing Miami Center
03:57PM 26.8428 -80.4769 348° North 437 503 16,900 1,500 Climbing Miami Center
03:58PM 26.9736 -80.5089 348° North 452 520 18,400 1,260 Climbing Miami Center
03:59PM 27.0992 -80.5450 346° North 464 534 19,600 1,200 Climbing Miami Center
04:00PM 27.2206 -80.6056 336° Northwest 472 543 20,900 1,380 Climbing Miami Center
04:01PM 27.3400 -80.6703 334° Northwest 477 549 22,500 1,440 Climbing Miami Center
04:02PM 27.4603 -80.7344 335° Northwest 477 549 23,900 1,140 Climbing Miami Center
04:03PM 27.5964 -80.8108 334° Northwest 497 572 24,900 480 Climbing Miami Center
04:04PM 27.7186 -80.8753 335° Northwest 483 556 24,900  Level Miami Center
04:05PM 27.8406 -80.9422 334° Northwest 487 560 25,000 840 Climbing Miami Center
04:06PM 27.9867 -81.0236 334° Northwest 489 563 26,700 1,380 Climbing Miami Center
04:07PM 28.1067 -81.0903 334° Northwest 487 560 27,900 600 Climbing Miami Center
04:08PM 28.2319 -81.1608 334° Northwest 482 555 28,000 480 Climbing Miami Center
04:09PM 28.3583 -81.2308 334° Northwest 482 555 29,000 900 Climbing Miami Center
04:11PM 28.4653 -81.2908 334° Northwest 480 552 29,900 840 Climbing Miami Center
04:12PM 28.5881 -81.3494 337° Northwest 480 552 30,800 480 Climbing Miami Center
04:13PM 28.7428 -81.4000 344° North 478 550 31,000  Climbing Miami Center
04:14PM 28.8706 -81.4428 344° North 490 564 30,900 -60 Descending Miami Center
04:15PM 28.9975 -81.4850 344° North 474 545 30,900  Level Miami Center
04:16PM 29.1250 -81.5269 344° North 475 547 31,000  Climbing Miami Center
04:17PM 29.2533 -81.5706 343° North 473 544 30,900  Descending Miami Center
04:18PM 29.4000 -81.6219 343° North 472 543 31,000  Climbing Jacksonville Center
04:19PM 29.5278 -81.6611 345° North 467 537 30,900 -60 Descending Jacksonville Center
04:20PM 29.6533 -81.7025 344° North 467 537 30,900  Level Jacksonville Center
04:21PM 29.7811 -81.7464 343° North 467 537 30,900  Level Jacksonville Center
04:22PM 29.9069 -81.7881 344° North 467 537 30,900  Level Jacksonville Center
04:23PM 30.0408 -81.8297 345° North 472 543 30,900  Level Jacksonville Center
04:24PM 30.1600 -81.8692 344° North 472 543 30,900  Level Jacksonville Center
04:25PM 30.2836 -81.9208 340° North 472 543 31,000  Climbing Jacksonville Center
04:26PM 30.4053 -81.9772 338° Northwest 467 537 31,000  Level Jacksonville Center
04:27PM 30.5267 -82.0317 339° North 467 537 31,000 -60 Level Jacksonville Center
04:28PM 30.6461 -82.0933 336° Northwest 467 537 30,900 -60 Descending Jacksonville Center
04:29PM 30.7675 -82.1503 338° Northwest 467 537 30,900  Level Jacksonville Center
04:30PM 30.8869 -82.2075 338° Northwest 467 537 31,000  Climbing Jacksonville Center
04:31PM 30.9853 -82.2528 338° Northwest 461 531 30,900 -60 Descending Jacksonville Center
04:32PM 31.1275 -82.3175 339° North 461 531 30,900  Level Jacksonville Center
04:33PM 31.2447 -82.3750 337° Northwest 456 525 31,000  Climbing Jacksonville Center
04:34PM 31.3661 -82.4278 340° North 456 525 31,000  Level Jacksonville Center
04:35PM 31.4872 -82.4858 338° Northwest 456 525 31,000  Level Jacksonville Center
04:36PM 31.5919 -82.5583 329° Northwest 456 525 31,000  Level Jacksonville Center
04:38PM 31.7583 -82.7103 322° Northwest 461 531 31,000  Level Atlanta Center
04:39PM 31.8656 -82.7869 329° Northwest 461 531 31,000  Level Atlanta Center
04:40PM 31.9869 -82.8342 342° North 455 524 31,000  Level Atlanta Center
04:41PM 32.1086 -82.8839 341° North 455 524 31,000  Level Atlanta Center
04:42PM 32.2447 -82.9411 340° North 461 531 31,000  Level Atlanta Center
04:43PM 32.3619 -82.9914 340° North 461 531 31,000  Level Atlanta Center
04:44PM 32.4856 -83.0417 341° North 461 531 31,000  Level Atlanta Center
04:45PM 32.6050 -83.0944 340° North 461 531 31,000 360 Level Atlanta Center
04:46PM 32.7264 -83.1425 342° North 456 525 31,800 480 Climbing Atlanta Center
04:47PM 32.8394 -83.1933 339° North 450 518 32,000 60 Climbing Atlanta Center
04:48PM 32.9631 -83.2467 340° North 450 518 32,000  Level Atlanta Center
04:49PM 33.0719 -83.2928 340° North 455 524 32,000  Level Atlanta Center
04:50PM 33.1972 -83.3064 355° North 445 512 32,000  Level Atlanta Center
04:51PM 33.3286 -83.3153 357° North 452 520 32,000  Level Atlanta Center
04:52PM 33.4625 -83.3267 356° North 464 534 32,000  Level Atlanta Center
04:53PM 33.5919 -83.3306 359° North 464 534 32,000  Level Atlanta Center
04:54PM 33.7214 -83.3369 358° North 464 534 32,000  Level Atlanta Center
04:55PM 33.8508 -83.3408 359° North 458 527 32,000  Level Atlanta Center
04:56PM 33.9822 -83.3397 360° North 463 533 32,000  Level Atlanta Center
04:57PM 34.1158 -83.3286 North 463 533 32,000  Level Atlanta Center
04:58PM 34.2428 -83.3100 North 463 533 32,000  Level Atlanta Center
04:59PM 34.3783 -83.2786 11° North 468 539 32,000  Level Atlanta Center
05:00PM 34.5078 -83.2700 North 476 548 32,000  Level Atlanta Center
05:01PM 34.6250 -83.3319 337° Northwest 461 531 32,000  Level Atlanta Center
05:02PM 34.7486 -83.4092 333° Northwest 443 510 32,000  Level Atlanta Center
05:03PM 34.8594 -83.4769 333° Northwest 443 510 32,000  Level Atlanta Center
05:04PM 34.9725 -83.5494 332° Northwest 443 510 32,000  Level Atlanta Center
05:05PM 35.0728 -83.6125 333° Northwest 449 517 32,000  Level Atlanta Center
05:06PM 35.1878 -83.6831 333° Northwest 454 522 32,000  Level Atlanta Center
05:07PM 35.3006 -83.7536 333° Northwest 454 522 32,000  Level Atlanta Center
05:08PM 35.4114 -83.8222 333° Northwest 454 522 32,000  Level Atlanta Center
05:09PM 35.5219 -83.8908 333° Northwest 454 522 32,000  Level Atlanta Center
05:10PM 35.6306 -83.9594 333° Northwest 454 522 32,000  Level Atlanta Center
05:11PM 35.7392 -84.0286 333° Northwest 449 517 32,000  Level Atlanta Center
05:12PM 35.8497 -84.1003 332° Northwest 449 517 32,000  Level Atlanta Center
05:13PM 36.0389 -84.2167 334° Northwest 442 509 32,000  Level Indianapolis Center
05:14PM 36.1472 -84.2864 333° Northwest 442 509 32,000  Level Indianapolis Center
05:15PM 36.2550 -84.3544 333° Northwest 442 509 32,000  Level Indianapolis Center
05:16PM 36.3617 -84.4242 332° Northwest 439 505 32,000  Level Indianapolis Center
05:17PM 36.4658 -84.4919 332° Northwest 432 497 32,000  Level Indianapolis Center
05:18PM 36.5889 -84.5725 332° Northwest 422 486 32,000  Level Indianapolis Center
05:19PM 36.6928 -84.6400 332° Northwest 421 484 32,000  Level Indianapolis Center
05:20PM 36.7953 -84.7061 333° Northwest 421 484 32,000  Level Indianapolis Center
05:21PM 36.8983 -84.7736 332° Northwest 417 480 32,000  Level Indianapolis Center
05:22PM 37.0003 -84.8406 332° Northwest 417 480 32,000  Level Indianapolis Center
05:23PM 37.1192 -84.9175 333° Northwest 409 471 32,000  Level Indianapolis Center
05:25PM 37.2200 -84.9861 332° Northwest 409 471 32,000  Level Indianapolis Center
05:26PM 37.3217 -85.0519 333° Northwest 409 471 32,000  Level Indianapolis Center
05:27PM 37.4242 -85.1206 332° Northwest 411 473 32,000  Level Indianapolis Center
05:28PM 37.5278 -85.1886 332° Northwest 414 476 32,000  Level Indianapolis Center
05:29PM 37.6314 -85.2575 332° Northwest 415 478 32,000  Level Indianapolis Center
05:30PM 37.7503 -85.3378 332° Northwest 415 478 32,000  Level Indianapolis Center
05:31PM 37.8506 -85.4058 332° Northwest 415 478 32,000  Level Indianapolis Center
05:32PM 37.9514 -85.4739 332° Northwest 413 475 32,000  Level Indianapolis Center
05:33PM 38.0539 -85.5414 333° Northwest 413 475 32,000  Level Indianapolis Center
05:34PM 38.1556 -85.6075 333° Northwest 413 475 32,000  Level Indianapolis Center
05:35PM 38.2600 -85.6681 336° Northwest 413 475 32,000  Level Indianapolis Center
05:36PM 38.3847 -85.7422 335° Northwest 412 474 32,000  Level Indianapolis Center
05:37PM 38.4889 -85.8031 335° Northwest 413 475 32,000  Level Indianapolis Center
05:38PM 38.5919 -85.8636 335° Northwest 412 474 32,000  Level Indianapolis Center
05:39PM 38.6958 -85.9256 335° Northwest 411 473 32,000  Level Indianapolis Center
05:40PM 38.7981 -85.9869 335° Northwest 411 473 32,000  Level Indianapolis Center
05:41PM 38.9114 -86.0550 335° Northwest 411 473 32,000  Level Indianapolis Center
05:42PM 39.0136 -86.1161 335° Northwest 410 472 32,000  Level Indianapolis Center
05:43PM 39.1164 -86.1781 335° Northwest 410 472 32,000  Level Indianapolis Center
05:44PM 39.2194 -86.2408 335° Northwest 409 471 32,000  Level Indianapolis Center
05:45PM 39.3408 -86.3139 335° Northwest 407 468 32,000  Level Indianapolis Center
05:46PM 39.4422 -86.3775 334° Northwest 407 468 32,000  Level Indianapolis Center
05:47PM 39.5453 -86.4397 335° Northwest 406 467 32,000  Level Indianapolis Center
05:48PM 39.6486 -86.5033 335° Northwest 406 467 32,000  Level Indianapolis Center
05:49PM 39.7514 -86.5678 334° Northwest 406 467 32,000  Level Indianapolis Center
05:50PM 39.8522 -86.6269 336° Northwest 399 459 32,000  Level Indianapolis Center
05:51PM 39.9519 -86.6883 335° Northwest 397 457 32,000  Level Indianapolis Center
05:52PM 40.0511 -86.7494 335° Northwest 396 456 32,000  Level Indianapolis Center
05:54PM 40.1722 -86.8133 338° Northwest 395 455 32,000  Level Indianapolis Center
05:55PM 40.2742 -86.8617 340° North 394 453 32,000  Level Indianapolis Center
05:56PM 40.3750 -86.9106 340° North 390 449 32,000  Level Indianapolis Center
05:57PM 40.4758 -86.9583 340° North 389 448 32,000  Level Indianapolis Center
05:58PM 40.5756 -87.0056 340° North 385 443 32,000  Level Indianapolis Center
05:59PM 40.6736 -87.0553 339° North 382 440 32,000 360 Level Indianapolis Center
06:00PM 40.7897 -87.1108 340° North 374 430 32,800 960 Climbing Indianapolis Center
06:01PM 40.8839 -87.1547 341° North 362 417 34,000 540 Climbing Indianapolis Center
06:02PM 40.9733 -87.1992 339° North 350 403 34,000  Level Indianapolis Center
06:03PM 41.0633 -87.2456 339° North 349 402 34,000  Level Indianapolis Center
06:04PM 41.1536 -87.2961 337° Northwest 349 402 34,000  Level Indianapolis Center
06:05PM 41.2136 -87.4422 299° West 371 427 34,000  Level Indianapolis Center
06:06PM 41.2522 -87.5733 291° West 381 438 34,000  Level Indianapolis Center
06:08PM 41.3342 -87.8483 292° West 383 441 34,000  Level Chicago Center
06:09PM 41.3803 -87.9978 292° West 388 447 34,000  Level Chicago Center
06:10PM 41.4217 -88.1322 292° West 392 451 34,000  Level Chicago Center
06:11PM 41.4561 -88.2589 290° West 384 442 34,000  Level Chicago Center
06:12PM 41.5031 -88.4194 291° West 386 444 34,000  Level Chicago Center
06:13PM 41.5417 -88.5539 291° West 387 445 34,000  Level Chicago Center
06:14PM 41.5800 -88.6897 291° West 391 450 34,000  Level Chicago Center
06:15PM 41.6194 -88.8283 291° West 393 452 34,000  Level Chicago Center
06:16PM 41.6569 -88.9650 290° West 395 455 34,000  Level Chicago Center
06:17PM 41.7044 -89.1308 291° West 396 456 34,000  Level Chicago Center
06:19PM 41.7450 -89.2697 291° West 399 459 34,000  Level Chicago Center
06:20PM 41.7831 -89.4094 290° West 401 461 34,000  Level Chicago Center
06:21PM 41.8217 -89.5500 290° West 401 461 34,000  Level Chicago Center
06:22PM 41.8592 -89.6894 290° West 401 461 34,000  Level Chicago Center
06:23PM 41.8969 -89.8314 290° West 403 464 34,000  Level Chicago Center
06:24PM 41.9414 -89.9894 291° West 402 463 34,000  Level Chicago Center
06:25PM 41.9794 -90.1297 290° West 402 463 34,000  Level Chicago Center
06:26PM 42.0164 -90.2706 289° West 403 464 34,000  Level Chicago Center
06:27PM 42.0619 -90.4389 290° West 403 464 34,000  Level Chicago Center
06:28PM 42.0989 -90.5833 289° West 409 471 34,000  Level Chicago Center
06:29PM 42.1367 -90.7236 290° West 404 465 34,000  Level Chicago Center
06:30PM 42.1742 -90.8653 290° West 404 465 34,000  Level Chicago Center
06:31PM 42.2094 -91.0042 289° West 397 457 34,000  Level Chicago Center
06:32PM 42.2514 -91.1731 289° West 397 457 34,000 -540 Level Chicago Center
06:33PM 42.2867 -91.3094 289° West 393 452 33,000 -540 Descending Chicago Center
06:34PM 42.3217 -91.4481 289° West 393 452 33,000  Level Chicago Center
06:35PM 42.3558 -91.5853 289° West 391 450 33,000  Level Chicago Center
06:36PM 42.3908 -91.7219 289° West 388 447 33,000  Level Chicago Center
06:37PM 42.4253 -91.8586 289° West 386 444 33,000  Level Chicago Center
06:38PM 42.4653 -92.0228 288° West 385 443 33,000  Level Chicago Center
06:39PM 42.4994 -92.1606 289° West 386 444 33,000 -540 Level Chicago Center
06:40PM 42.5331 -92.2983 288° West 386 444 32,000 -540 Descending Chicago Center
06:41PM 42.5808 -92.4236 297° West 390 449 32,000  Level Chicago Center
06:42PM 42.6719 -92.5067 326° Northwest 394 453 32,000  Level Chicago Center
06:43PM 42.7789 -92.6058 326° Northwest 393 452 32,000 -180 Level Chicago Center
06:44PM 42.8703 -92.6872 327° Northwest 393 452 31,700 -1,140 Descending Chicago Center
06:45PM 42.9597 -92.7703 326° Northwest 393 452 29,700 -1,860 Descending Chicago Center
06:46PM 43.0614 -92.8442 332° Northwest 414 476 27,900 -1,800 Descending Chicago Center
06:48PM 43.1850 -92.8856 346° North 415 478 26,000 -1,860 Descending Chicago Center
06:49PM 43.3047 -92.9219 348° North 411 473 24,100 -2,220 Descending Chicago Center
06:50PM 43.4086 -92.9542 347° North 390 449 21,500 -2,280 Descending Chicago Center
06:51PM 43.5097 -92.9903 345° North 382 440 19,400 -1,680 Descending Chicago Center
06:52PM 43.6208 -93.0278 346° North 382 440 18,100 -1,320 Descending Chicago Center
06:53PM 43.7608 -93.0667 349° North 386 444 16,300 -1,380 Descending Minneapolis Center
06:54PM 43.8711 -93.1022 347° North 380 437 14,900 -1,740 Descending Minneapolis Center
06:55PM 43.9714 -93.1342 347° North 372 428 12,700 -1,800 Descending Minneapolis Center
06:56PM 44.0675 -93.1656 347° North 361 415 11,200 -1,320 Descending Minneapolis Center
06:57PM 44.1572 -93.1969 346° North 337 388 10,000 -600 Descending Minneapolis Center
06:58PM 44.2450 -93.2211 349° North 326 375 10,000  Level Minneapolis Center
06:59PM 44.3553 -93.2097 North 331 381 10,000  Level Minneapolis Center
07:00PM 44.4447 -93.2028 North 321 369 10,000  Level Minneapolis Center
07:01PM 44.5256 -93.1950 North 297 342 10,000 -300 Level Minneapolis Center
07:02PM 44.6047 -93.1856 North 289 333 9,500 -840 Descending Minneapolis Center
07:03PM 44.6775 -93.2147 344° North 278 320 8,300 -720 Descending Minneapolis Center
07:04PM 44.7525 -93.2597 337° Northwest 278 320 8,000 -480 Descending Minneapolis Center
07:05PM 44.8244 -93.3069 335° Northwest 278 320 7,400 -900 Descending Minneapolis Center
07:06PM 44.8617 -93.3992 300° West 276 318 6,200 -1,260 Descending Minneapolis Center
07:08PM 44.9036 -93.5089 298° West 269 310 4,900 -1,080 Descending Minneapolis Center
07:09PM 44.9597 -93.5211 351° North 246 283 4,000 -540 Descending Minneapolis Center
07:10PM 44.9808 -93.4539 66° East 195 224 3,900 -300 Descending Minneapolis Center
07:11PM 44.9589 -93.3986 119° Southeast 164 189 3,500 -600 Descending Minneapolis Center
07:12PM 44.9358 -93.3453 121° Southeast 163 188 2,700 -780 Descending Minneapolis Center
07:13PM 44.9142 -93.2939 121° Southeast 155 178 1,900 -780 Descending Minneapolis Center